createdAt,value
2022-12-24T00:00:14.005Z,1.57
2022-12-24T00:02:41.638Z,1.90
2022-12-24T00:05:09.844Z,1.57
2022-12-24T00:07:37.355Z,3.50
2022-12-24T00:10:05.991Z,2.30
2022-12-24T00:12:33.731Z,1.13
2022-12-24T00:15:02.643Z,3.23
2022-12-24T00:17:30.224Z,1.60
2022-12-24T00:19:57.759Z,2.20
2022-12-24T00:22:25.325Z,1.83
2022-12-24T00:24:52.837Z,1.87
2022-12-24T00:27:20.359Z,2.43
2022-12-24T00:29:47.851Z,3.13
2022-12-24T00:32:16.732Z,1.67
2022-12-24T00:34:44.957Z,1.77
2022-12-24T00:37:12.470Z,2.10
2022-12-24T00:39:40.014Z,1.47
2022-12-24T00:42:07.520Z,2.07
2022-12-24T00:44:35.084Z,2.17
2022-12-24T00:47:05.522Z,1.97
2022-12-24T00:49:39.387Z,2.33
2022-12-24T00:52:06.890Z,2.50
2022-12-24T00:54:34.404Z,1.93
2022-12-24T00:57:01.914Z,2.23
2022-12-24T00:59:29.459Z,1.60
2022-12-24T01:01:57.140Z,1.73
2022-12-24T01:04:42.591Z,2.10
2022-12-24T01:07:11.472Z,2.07
2022-12-24T01:09:39.379Z,2.20
2022-12-24T01:12:07.005Z,2.10
2022-12-24T01:14:34.553Z,1.63
2022-12-24T01:17:02.069Z,1.53
2022-12-24T01:19:29.834Z,2.03
2022-12-24T01:21:57.347Z,1.80
2022-12-24T01:24:26.329Z,1.80
2022-12-24T01:26:53.869Z,2.87
2022-12-24T01:29:21.472Z,1.77
2022-12-24T01:31:49.007Z,2.00
2022-12-24T01:34:16.564Z,1.73
2022-12-24T01:36:44.069Z,2.20
2022-12-24T01:39:11.599Z,1.77
2022-12-24T01:41:58.173Z,2.23
2022-12-24T01:44:35.214Z,2.33
2022-12-24T01:47:08.592Z,2.30
2022-12-24T01:49:36.961Z,1.70
2022-12-24T01:52:06.784Z,1.70
2022-12-24T01:54:36.561Z,2.40
2022-12-24T01:57:08.631Z,1.90
2022-12-24T01:59:37.885Z,2.10
2022-12-24T02:02:05.744Z,2.30
2022-12-24T02:04:38.287Z,2.20
2022-12-24T02:07:05.836Z,2.37
2022-12-24T02:09:34.345Z,2.20
2022-12-24T02:12:02.105Z,2.20
2022-12-24T02:14:32.709Z,2.63
2022-12-24T02:17:03.421Z,2.60
2022-12-24T02:20:20.909Z,1.53
2022-12-24T02:23:04.247Z,2.13
2022-12-24T02:25:46.848Z,2.37
2022-12-24T02:28:17.951Z,2.53
2022-12-24T02:30:49.871Z,2.00
2022-12-24T02:33:24.222Z,2.00
2022-12-24T02:36:00.534Z,1.57
2022-12-24T02:38:30.660Z,1.60
2022-12-24T02:41:01.433Z,2.20
2022-12-24T02:43:33.467Z,2.33
2022-12-24T02:46:06.388Z,2.67
2022-12-24T02:48:34.613Z,1.93
2022-12-24T02:51:08.781Z,1.83
2022-12-24T02:53:36.645Z,2.03
2022-12-24T02:56:17.555Z,2.10
2022-12-24T02:58:55.758Z,1.80
2022-12-24T03:01:33.273Z,2.00
2022-12-24T03:04:08.371Z,1.90
2022-12-24T03:06:41.974Z,2.00
2022-12-24T03:09:15.448Z,1.90
2022-12-24T03:11:46.930Z,1.87
2022-12-24T03:14:15.551Z,2.47
2022-12-24T03:16:45.246Z,2.40
2022-12-24T03:19:12.916Z,2.30
2022-12-24T03:21:42.524Z,1.90
2022-12-24T03:24:11.008Z,1.90
2022-12-24T03:26:39.798Z,1.90
2022-12-24T03:29:08.176Z,2.57
2022-12-24T03:31:45.057Z,1.90
2022-12-24T03:34:13.152Z,1.90
2022-12-24T03:36:40.677Z,1.67
2022-12-24T03:39:08.323Z,2.10
2022-12-24T03:41:35.876Z,1.87
2022-12-24T03:44:03.429Z,1.97
2022-12-24T03:46:30.933Z,2.03
2022-12-24T03:49:00.228Z,2.10
2022-12-24T03:51:28.404Z,1.90
2022-12-24T03:53:58.330Z,1.83
2022-12-24T03:56:26.197Z,2.17
2022-12-24T03:58:53.954Z,1.60
2022-12-24T04:01:21.678Z,1.97
2022-12-24T04:03:49.271Z,2.47
2022-12-24T04:06:18.897Z,2.70
2022-12-24T04:08:46.736Z,2.70
2022-12-24T04:11:15.831Z,2.57
2022-12-24T04:13:43.596Z,2.13
2022-12-24T04:16:13.171Z,2.00
2022-12-24T04:18:41.802Z,2.45
2022-12-24T04:21:09.885Z,1.90
2022-12-24T04:23:40.157Z,2.60
2022-12-24T04:26:09.552Z,2.53
2022-12-24T04:28:37.735Z,2.20
2022-12-24T04:31:07.055Z,2.30
2022-12-24T04:33:35.126Z,2.40
2022-12-24T04:36:03.744Z,2.23
2022-12-24T04:38:32.073Z,2.20
2022-12-24T04:41:02.146Z,2.40
2022-12-24T04:43:29.970Z,2.00
2022-12-24T04:45:57.610Z,2.43
2022-12-24T04:48:25.181Z,2.07
2022-12-24T04:50:52.780Z,1.73
2022-12-24T04:53:20.294Z,2.07
2022-12-24T04:55:47.914Z,2.20
2022-12-24T04:58:16.785Z,2.27
2022-12-24T05:00:44.323Z,2.13
2022-12-24T05:03:11.934Z,2.47
2022-12-24T05:05:39.936Z,2.40
2022-12-24T05:08:08.081Z,2.40
2022-12-24T05:10:35.661Z,2.60
2022-12-24T05:13:03.446Z,2.17
2022-12-24T05:15:32.295Z,1.80
2022-12-24T05:17:59.806Z,2.10
2022-12-24T05:20:27.361Z,2.47
2022-12-24T05:23:12.646Z,1.70
2022-12-24T05:25:58.259Z,1.90
2022-12-24T05:28:25.941Z,1.63
2022-12-24T05:30:54.902Z,2.10
2022-12-24T05:33:22.505Z,2.63
2022-12-24T05:35:52.383Z,1.97
2022-12-24T05:38:20.069Z,2.13
2022-12-24T05:40:47.993Z,2.30
2022-12-24T05:43:15.563Z,2.67
2022-12-24T05:45:43.309Z,2.30
2022-12-24T05:48:12.383Z,2.53
2022-12-24T05:50:40.699Z,2.30
2022-12-24T05:53:09.059Z,2.70
2022-12-24T05:55:36.558Z,2.80
2022-12-24T05:58:04.083Z,2.07
2022-12-24T06:00:31.595Z,3.20
2022-12-24T06:02:59.213Z,2.73
2022-12-24T06:05:28.171Z,2.67
2022-12-24T06:07:55.722Z,2.10
2022-12-24T06:10:23.300Z,2.13
2022-12-24T06:12:50.895Z,2.33
2022-12-24T06:15:23.644Z,3.30
2022-12-24T06:17:51.785Z,2.72
2022-12-24T06:20:19.380Z,3.57
2022-12-24T06:22:48.242Z,3.17
2022-12-24T06:25:15.859Z,2.27
2022-12-24T06:27:43.607Z,2.50
2022-12-24T06:30:11.940Z,2.97
2022-12-24T06:32:39.492Z,6.10
2022-12-24T06:35:07.397Z,2.80
2022-12-24T06:37:34.896Z,2.50
2022-12-24T06:40:04.042Z,2.63
2022-12-24T06:42:31.550Z,2.33
2022-12-24T06:45:03.865Z,2.40
2022-12-24T06:47:35.597Z,2.30
2022-12-24T06:50:03.250Z,3.00
2022-12-24T06:52:30.787Z,2.03
2022-12-24T06:54:58.344Z,2.40
2022-12-24T06:57:27.213Z,2.30
2022-12-24T06:59:54.749Z,2.57
2022-12-24T07:02:22.411Z,2.70
2022-12-24T07:04:50.002Z,2.47
2022-12-24T07:07:17.546Z,2.17
2022-12-24T07:09:45.156Z,2.47
2022-12-24T07:12:12.665Z,2.97
2022-12-24T07:14:41.632Z,2.77
2022-12-24T07:17:10.273Z,2.73
2022-12-24T07:19:37.825Z,3.20
2022-12-24T07:22:10.250Z,2.30
2022-12-24T07:24:41.100Z,2.63
2022-12-24T07:27:08.856Z,2.13
2022-12-24T07:29:36.357Z,2.17
2022-12-24T07:32:05.792Z,2.13
2022-12-24T07:34:33.400Z,2.40
2022-12-24T07:37:00.906Z,2.60
2022-12-24T07:39:28.501Z,3.17
2022-12-24T07:41:56.004Z,3.55
2022-12-24T07:44:23.651Z,3.13
2022-12-24T07:46:51.238Z,2.57
2022-12-24T07:49:20.173Z,3.03
2022-12-24T07:51:47.723Z,2.93
2022-12-24T07:54:15.447Z,3.43
2022-12-24T07:56:43.699Z,3.30
2022-12-24T07:59:13.452Z,3.33
2022-12-24T08:01:41.512Z,3.40
2022-12-24T08:04:09.282Z,3.37
2022-12-24T08:06:38.332Z,3.90
2022-12-24T08:09:06.177Z,3.03
2022-12-24T08:11:33.699Z,3.07
2022-12-24T08:14:01.221Z,3.40
2022-12-24T08:16:28.818Z,3.53
2022-12-24T08:18:56.389Z,3.67
2022-12-24T08:21:24.125Z,3.53
2022-12-24T08:23:53.045Z,4.13
2022-12-24T08:26:20.553Z,3.70
2022-12-24T08:28:48.077Z,3.97
2022-12-24T08:31:15.929Z,3.00
2022-12-24T08:33:43.483Z,3.20
2022-12-24T08:36:11.240Z,3.60
2022-12-24T08:38:38.781Z,2.60
2022-12-24T08:41:07.715Z,3.27
2022-12-24T08:43:35.531Z,4.00
2022-12-24T08:46:04.601Z,2.93
2022-12-24T08:48:32.439Z,3.10
2022-12-24T08:51:00.147Z,2.57
2022-12-24T08:53:27.697Z,3.20
2022-12-24T08:56:02.871Z,2.87
2022-12-24T08:58:32.151Z,4.93
2022-12-24T09:01:00.285Z,3.40
2022-12-24T09:03:28.515Z,3.97
2022-12-24T09:05:56.612Z,3.03
2022-12-24T09:08:24.140Z,2.40
2022-12-24T09:10:51.634Z,2.70
2022-12-24T09:13:19.232Z,3.13
2022-12-24T09:15:55.153Z,2.97
2022-12-24T09:18:22.845Z,2.90
2022-12-24T09:20:56.833Z,3.00
2022-12-24T09:23:24.971Z,3.70
2022-12-24T09:25:52.494Z,3.53
2022-12-24T09:28:20.097Z,3.13
2022-12-24T09:30:57.936Z,2.97
2022-12-24T09:33:25.467Z,3.23
2022-12-24T09:35:53.318Z,4.30
2022-12-24T09:38:21.523Z,3.17
2022-12-24T09:40:50.348Z,4.13
2022-12-24T09:43:20.396Z,3.00
2022-12-24T09:46:02.683Z,2.87
2022-12-24T09:48:33.198Z,3.37
2022-12-24T09:51:04.657Z,3.00
2022-12-24T09:53:37.892Z,2.97
2022-12-24T09:56:11.167Z,5.73
2022-12-24T09:58:42.288Z,3.20
2022-12-24T10:01:13.347Z,3.10
2022-12-24T10:03:42.424Z,2.97
2022-12-24T10:06:13.271Z,3.40
2022-12-24T10:08:49.433Z,2.73
2022-12-24T10:11:21.203Z,3.80
2022-12-24T10:14:04.991Z,3.37
2022-12-24T10:16:38.411Z,3.43
2022-12-24T10:19:15.479Z,2.90
2022-12-24T10:21:49.542Z,2.70
2022-12-24T10:24:22.229Z,3.20
2022-12-24T10:26:51.965Z,3.17
2022-12-24T10:29:22.096Z,3.43
2022-12-24T10:31:56.745Z,3.83
2022-12-24T10:34:29.163Z,2.87
2022-12-24T10:36:57.480Z,3.00
2022-12-24T10:39:27.025Z,2.80
2022-12-24T10:41:57.763Z,3.10
2022-12-24T10:44:27.165Z,3.07
2022-12-24T10:46:54.889Z,3.27
2022-12-24T10:49:31.173Z,3.70
2022-12-24T10:52:01.363Z,3.70
2022-12-24T10:54:34.397Z,3.37
2022-12-24T10:57:03.131Z,4.07
2022-12-24T10:59:32.400Z,4.07
2022-12-24T11:02:01.171Z,2.63
2022-12-24T11:04:31.632Z,2.73
2022-12-24T11:07:01.060Z,2.80
2022-12-24T11:09:30.468Z,2.87
2022-12-24T11:12:02.548Z,2.90
2022-12-24T11:14:36.284Z,3.27
2022-12-24T11:17:04.245Z,3.23
2022-12-24T11:19:35.452Z,3.53
2022-12-24T11:22:05.487Z,4.10
2022-12-24T11:24:34.662Z,3.33
2022-12-24T11:27:31.682Z,3.77
2022-12-24T11:30:21.608Z,3.00
2022-12-24T11:32:50.334Z,2.97
2022-12-24T11:35:22.213Z,3.20
2022-12-24T11:37:50.260Z,2.87
2022-12-24T11:40:21.963Z,3.17
2022-12-24T11:42:53.299Z,3.37
2022-12-24T11:45:24.277Z,3.63
2022-12-24T11:47:53.576Z,3.07
2022-12-24T11:50:26.013Z,3.60
2022-12-24T11:52:58.039Z,3.07
2022-12-24T11:55:31.515Z,3.03
2022-12-24T11:58:01.789Z,3.23
2022-12-24T12:00:29.710Z,3.93
2022-12-24T12:02:58.464Z,2.93
2022-12-24T12:05:29.682Z,4.07
2022-12-24T12:07:59.998Z,3.63
2022-12-24T12:10:31.174Z,3.17
2022-12-24T12:13:01.576Z,3.33
2022-12-24T12:15:30.984Z,3.10
2022-12-24T12:18:04.582Z,2.80
2022-12-24T12:20:35.809Z,2.73
2022-12-24T12:23:07.039Z,2.63
2022-12-24T12:25:39.024Z,3.60
2022-12-24T12:28:09.896Z,3.07
2022-12-24T12:30:38.432Z,2.92
2022-12-24T12:33:10.533Z,3.20
2022-12-24T12:35:40.931Z,2.60
2022-12-24T12:38:12.529Z,2.83
2022-12-24T12:40:51.718Z,3.60
2022-12-24T12:43:29.813Z,2.83
2022-12-24T12:45:59.939Z,2.10
2022-12-24T12:48:42.188Z,2.90
2022-12-24T12:51:16.685Z,2.90
2022-12-24T12:53:55.081Z,2.70
2022-12-24T12:56:28.413Z,3.33
2022-12-24T12:59:00.139Z,2.33
2022-12-24T13:01:33.214Z,3.37
2022-12-24T13:04:21.394Z,4.20
2022-12-24T13:07:09.993Z,2.37
2022-12-24T13:10:03.493Z,2.60
2022-12-24T13:12:43.816Z,3.10
2022-12-24T13:15:41.867Z,2.77
2022-12-24T13:18:21.401Z,3.13
2022-12-24T13:20:51.349Z,3.07
2022-12-24T13:23:22.601Z,2.47
2022-12-24T13:25:51.704Z,4.10
2022-12-24T13:28:37.020Z,3.90
2022-12-24T13:31:29.701Z,3.40
2022-12-24T13:34:02.585Z,6.50
2022-12-24T13:37:18.044Z,8.37
2022-12-24T13:40:15.914Z,3.13
2022-12-24T13:42:57.084Z,4.90
2022-12-24T13:45:43.651Z,4.10
2022-12-24T13:48:30.184Z,5.10
2022-12-24T13:50:59.787Z,4.43
2022-12-24T13:53:30.093Z,3.13
2022-12-24T13:56:03.418Z,4.70
2022-12-24T14:01:01.398Z,3.00
2022-12-24T14:03:31.416Z,4.40
2022-12-24T14:06:00.781Z,4.70
2022-12-24T14:08:31.741Z,4.50
2022-12-24T14:11:14.081Z,3.07
2022-12-24T14:13:56.593Z,4.07
2022-12-24T14:16:25.239Z,2.80
2022-12-24T14:19:00.010Z,3.40
2022-12-24T14:21:30.991Z,3.10
2022-12-24T14:24:00.524Z,3.40
2022-12-24T14:26:32.151Z,2.73
2022-12-24T14:29:03.415Z,3.23
2022-12-24T14:31:30.984Z,3.23
2022-12-24T14:34:08.845Z,2.67
2022-12-24T14:36:36.833Z,2.93
2022-12-24T14:39:07.082Z,3.13
2022-12-24T14:41:43.821Z,2.63
2022-12-24T14:44:19.556Z,2.60
2022-12-24T14:46:50.035Z,3.20
2022-12-24T14:49:28.767Z,3.00
2022-12-24T14:52:03.919Z,4.38
2022-12-24T14:54:36.649Z,3.85
2022-12-24T14:57:22.971Z,3.23
2022-12-24T14:59:52.535Z,3.63
2022-12-24T15:02:41.819Z,3.07
2022-12-24T15:05:15.339Z,3.77
2022-12-24T15:07:47.789Z,4.10
2022-12-24T15:10:36.715Z,4.23
2022-12-24T15:13:07.595Z,4.00
2022-12-24T15:15:35.526Z,3.20
2022-12-24T15:18:04.576Z,3.00
2022-12-24T15:20:32.636Z,3.20
2022-12-24T15:23:00.290Z,3.43
2022-12-24T15:25:29.843Z,2.80
2022-12-24T15:27:57.911Z,3.90
2022-12-24T15:30:28.657Z,3.27
2022-12-24T15:32:58.903Z,3.23
2022-12-24T15:35:45.766Z,2.90
2022-12-24T15:38:27.266Z,3.20
2022-12-24T15:40:55.756Z,2.60
2022-12-24T15:43:23.490Z,3.97
2022-12-24T15:45:52.482Z,10.17
2022-12-24T15:48:23.610Z,7.37
2022-12-24T15:50:53.079Z,4.20
2022-12-24T15:53:24.996Z,3.63
2022-12-24T15:56:07.611Z,3.60
2022-12-24T15:58:36.863Z,2.97
2022-12-24T16:01:29.067Z,3.20
2022-12-24T16:04:00.940Z,3.53
2022-12-24T16:06:29.424Z,3.90
2022-12-24T16:08:59.671Z,2.93
2022-12-24T16:11:34.986Z,3.73
2022-12-24T16:14:10.232Z,7.33
2022-12-24T16:16:40.655Z,3.23
2022-12-24T16:19:08.937Z,3.20
2022-12-24T16:21:38.181Z,3.07
2022-12-24T16:24:08.611Z,2.83
2022-12-24T16:26:38.100Z,2.90
2022-12-24T16:29:05.794Z,2.67
2022-12-24T16:31:35.323Z,2.90
2022-12-24T16:34:05.037Z,3.27
2022-12-24T16:36:33.285Z,6.13
2022-12-24T16:39:18.728Z,4.60
2022-12-24T16:42:03.231Z,12.00
2022-12-24T16:44:30.771Z,14.30
2022-12-24T16:47:00.169Z,15.30
2022-12-24T16:49:29.409Z,15.67
2022-12-24T16:51:56.961Z,13.10
2022-12-24T16:54:24.493Z,9.83
2022-12-24T16:56:52.308Z,10.80
2022-12-24T16:59:23.269Z,18.77
2022-12-24T17:01:51.578Z,14.43
2022-12-24T17:04:19.782Z,12.33
2022-12-24T17:06:49.594Z,14.57
2022-12-24T17:09:17.737Z,12.77
2022-12-24T17:11:45.334Z,11.77
2022-12-24T17:14:20.030Z,14.73
2022-12-24T17:16:47.770Z,13.70
2022-12-24T17:19:15.400Z,11.83
2022-12-24T17:21:42.951Z,9.47
2022-12-24T17:24:12.396Z,8.03
2022-12-24T17:26:39.972Z,9.43
2022-12-24T17:29:07.603Z,11.03
2022-12-24T17:31:35.205Z,13.30
2022-12-24T17:34:02.900Z,14.13
2022-12-24T17:36:30.466Z,14.70
2022-12-24T17:38:58.034Z,21.23
2022-12-24T17:41:26.915Z,24.83
2022-12-24T17:43:54.479Z,24.77
2022-12-24T17:46:23.699Z,21.60
2022-12-24T17:48:52.301Z,20.33
2022-12-24T17:51:21.422Z,12.60
2022-12-24T17:53:50.270Z,10.33
2022-12-24T17:56:18.239Z,11.90
2022-12-24T17:58:47.518Z,11.47
2022-12-24T18:01:16.942Z,9.87
2022-12-24T18:03:44.749Z,9.70
2022-12-24T18:06:15.190Z,9.57
2022-12-24T18:08:44.338Z,9.00
2022-12-24T18:11:13.083Z,9.07
2022-12-24T18:13:40.710Z,9.23
2022-12-24T18:16:16.388Z,7.97
2022-12-24T18:18:43.938Z,9.60
2022-12-24T18:21:11.791Z,18.43
2022-12-24T18:23:39.608Z,43.20
2022-12-24T18:26:07.132Z,33.40
2022-12-24T18:28:34.684Z,32.37
2022-12-24T18:31:04.925Z,149.63
2022-12-24T18:33:34.606Z,113.53
2022-12-24T18:36:02.316Z,50.27
2022-12-24T18:38:30.028Z,32.43
2022-12-24T18:41:03.169Z,31.10
2022-12-24T18:43:30.713Z,36.47
2022-12-24T18:45:58.257Z,51.43
2022-12-24T18:48:25.910Z,39.97
2022-12-24T18:50:58.866Z,38.70
2022-12-24T18:53:26.660Z,76.37
2022-12-24T18:55:54.238Z,84.60
2022-12-24T18:58:21.834Z,276.77
2022-12-24T19:00:49.389Z,66.00
2022-12-24T19:03:17.144Z,39.50
2022-12-24T19:05:44.906Z,56.97
2022-12-24T19:08:47.160Z,49.13
2022-12-24T19:11:01.665Z,34.60
2022-12-24T19:13:29.487Z,47.70
2022-12-24T19:15:57.226Z,51.87
2022-12-24T19:18:24.872Z,44.57
2022-12-24T19:20:52.446Z,44.23
2022-12-24T19:23:21.356Z,97.53
2022-12-24T19:25:50.144Z,22.93
2022-12-24T19:28:21.271Z,11.37
2022-12-24T19:30:51.708Z,11.03
2022-12-24T19:33:19.267Z,183.37
2022-12-24T19:35:46.807Z,162.23
2022-12-24T19:38:14.354Z,93.00
2022-12-24T19:40:43.246Z,115.10
2022-12-24T19:43:10.793Z,152.50
2022-12-24T19:45:38.329Z,159.13
2022-12-24T19:48:06.396Z,43.10
2022-12-24T19:50:33.948Z,32.20
2022-12-24T19:53:01.534Z,45.83
2022-12-24T19:55:29.071Z,93.73
2022-12-24T19:57:57.937Z,107.13
2022-12-24T20:00:25.641Z,41.83
2022-12-24T20:02:53.293Z,22.47
2022-12-24T20:05:21.078Z,8.77
2022-12-24T20:07:48.629Z,7.77
2022-12-24T20:10:16.497Z,8.23
2022-12-24T20:12:44.072Z,8.70
2022-12-24T20:15:13.203Z,8.70
2022-12-24T20:17:40.786Z,18.97
2022-12-24T20:20:09.357Z,31.97
2022-12-24T20:22:36.942Z,22.90
2022-12-24T20:25:04.799Z,14.37
2022-12-24T20:27:32.297Z,8.10
2022-12-24T20:29:59.843Z,6.90
2022-12-24T20:32:29.610Z,7.70
2022-12-24T20:34:57.229Z,6.10
2022-12-24T20:37:24.782Z,6.30
2022-12-24T20:39:52.298Z,5.77
2022-12-24T20:42:19.853Z,6.43
2022-12-24T20:44:49.192Z,6.07
2022-12-24T20:47:16.818Z,5.67
2022-12-24T20:49:46.010Z,15.50
2022-12-24T20:52:13.690Z,18.33
2022-12-24T20:54:41.230Z,20.97
2022-12-24T20:57:08.829Z,12.63
2022-12-24T20:59:36.555Z,8.07
2022-12-24T21:02:04.173Z,6.97
2022-12-24T21:04:31.830Z,6.20
2022-12-24T21:07:00.901Z,5.50
2022-12-24T21:09:28.465Z,5.70
2022-12-24T21:12:13.742Z,5.37
2022-12-24T21:14:41.288Z,4.40
2022-12-24T21:17:15.168Z,4.23
2022-12-24T21:19:43.352Z,4.43
2022-12-24T21:22:12.276Z,5.33
2022-12-24T21:24:40.714Z,5.47
2022-12-24T21:27:08.307Z,5.80
2022-12-24T21:29:35.812Z,5.10
2022-12-24T21:32:03.445Z,5.07
2022-12-24T21:34:30.964Z,5.60
2022-12-24T21:36:58.527Z,6.10
2022-12-24T21:39:27.384Z,6.57
2022-12-24T21:41:54.881Z,6.63
2022-12-24T21:44:22.487Z,5.37
2022-12-24T21:46:50.182Z,4.70
2022-12-24T21:49:35.329Z,5.40
2022-12-24T21:52:02.880Z,4.83
2022-12-24T21:54:31.992Z,4.80
2022-12-24T21:57:19.016Z,5.10
2022-12-24T21:59:46.703Z,4.80
2022-12-24T22:02:15.511Z,4.87
2022-12-24T22:04:43.825Z,4.83
2022-12-24T22:07:38.362Z,4.37
2022-12-24T22:10:26.783Z,4.57
2022-12-24T22:12:55.078Z,4.70
2022-12-24T22:15:23.282Z,4.60
2022-12-24T22:17:50.944Z,4.80
2022-12-24T22:20:18.678Z,5.73
2022-12-24T22:22:46.253Z,6.13
2022-12-24T22:25:15.216Z,15.87
2022-12-24T22:27:43.053Z,6.33
2022-12-24T22:30:11.522Z,5.80
2022-12-24T22:32:39.018Z,5.67
2022-12-24T22:35:07.098Z,5.40
2022-12-24T22:37:34.647Z,5.33
2022-12-24T22:40:02.412Z,6.40
2022-12-24T22:42:33.805Z,6.00
2022-12-24T22:45:01.471Z,5.90
2022-12-24T22:47:28.999Z,6.97
2022-12-24T22:49:56.660Z,7.70
2022-12-24T22:52:24.289Z,9.80
2022-12-24T22:54:51.847Z,12.83
2022-12-24T22:57:19.384Z,14.07
2022-12-24T22:59:49.307Z,9.27
2022-12-24T23:02:22.134Z,8.70
2022-12-24T23:04:53.492Z,7.03
2022-12-24T23:07:21.072Z,7.93
2022-12-24T23:09:48.646Z,7.10
2022-12-24T23:12:36.550Z,6.47
2022-12-24T23:15:05.464Z,4.57
2022-12-24T23:17:33.011Z,5.40
2022-12-24T23:20:02.324Z,5.23
2022-12-24T23:22:29.830Z,4.40
2022-12-24T23:24:57.403Z,5.00
2022-12-24T23:27:24.996Z,5.57
2022-12-24T23:29:52.519Z,5.27
2022-12-24T23:32:22.822Z,5.33
2022-12-24T23:34:50.397Z,7.00
2022-12-24T23:37:17.937Z,5.50
2022-12-24T23:39:45.948Z,5.60
2022-12-24T23:42:13.497Z,5.23
2022-12-24T23:44:40.991Z,4.40
2022-12-24T23:47:08.608Z,4.70
2022-12-24T23:49:37.607Z,4.53
2022-12-24T23:52:05.342Z,5.47
2022-12-24T23:54:32.860Z,5.20
2022-12-24T23:57:00.373Z,5.50
2022-12-24T23:59:27.977Z,5.97
